createdAt,value
2023-03-14T00:00:05.468Z,1002
2023-03-14T00:01:05.459Z,1002
2023-03-14T00:02:05.502Z,1002
2023-03-14T00:03:05.468Z,1002
2023-03-14T00:04:05.472Z,1002
2023-03-14T00:05:05.437Z,1002
2023-03-14T00:06:05.467Z,1002
2023-03-14T00:07:05.479Z,1002
2023-03-14T00:08:05.466Z,1002
2023-03-14T00:09:05.529Z,1002
2023-03-14T00:10:05.486Z,1002
2023-03-14T00:11:05.444Z,1002
2023-03-14T00:12:05.444Z,1002
2023-03-14T00:13:05.477Z,1002
2023-03-14T00:14:05.471Z,1002
2023-03-14T00:15:05.470Z,1002
2023-03-14T00:16:05.511Z,1002
2023-03-14T00:17:05.476Z,1002
2023-03-14T00:18:05.481Z,1002
2023-03-14T00:19:05.483Z,1002
2023-03-14T00:20:05.481Z,1002
2023-03-14T00:21:05.503Z,1003
2023-03-14T00:22:05.489Z,1003
2023-03-14T00:23:05.478Z,1003
2023-03-14T00:24:05.476Z,1003
2023-03-14T00:25:05.495Z,1003
2023-03-14T00:26:05.534Z,1003
2023-03-14T00:27:05.472Z,1003
2023-03-14T00:28:05.481Z,1003
2023-03-14T00:29:05.470Z,1002
2023-03-14T00:30:05.475Z,1002
2023-03-14T00:31:05.552Z,1002
2023-03-14T00:32:05.525Z,1002
2023-03-14T00:33:05.468Z,1002
2023-03-14T00:34:05.478Z,1002
2023-03-14T00:35:05.466Z,1002
2023-03-14T00:36:05.515Z,1002
2023-03-14T00:37:05.473Z,1002
2023-03-14T00:38:05.519Z,1002
2023-03-14T00:39:05.493Z,1002
2023-03-14T00:40:05.536Z,1002
2023-03-14T00:41:05.488Z,1002
2023-03-14T00:42:05.472Z,1002
2023-03-14T00:43:05.486Z,1002
2023-03-14T00:44:05.475Z,1002
2023-03-14T00:45:05.475Z,1002
2023-03-14T00:46:05.492Z,1002
2023-03-14T00:47:05.549Z,1002
2023-03-14T00:48:05.480Z,1002
2023-03-14T00:49:05.487Z,1002
2023-03-14T00:50:05.499Z,1002
2023-03-14T00:51:05.501Z,1002
2023-03-14T00:52:05.469Z,1002
2023-03-14T00:53:05.490Z,1002
2023-03-14T00:54:05.550Z,1002
2023-03-14T00:55:05.543Z,1002
2023-03-14T00:56:05.498Z,1002
2023-03-14T00:57:05.521Z,1002
2023-03-14T00:58:05.486Z,1002
2023-03-14T00:59:05.505Z,1002
2023-03-14T01:00:05.539Z,1002
2023-03-14T01:01:05.538Z,1002
2023-03-14T01:02:05.599Z,1002
2023-03-14T01:03:05.587Z,1002
2023-03-14T01:04:05.511Z,1002
2023-03-14T01:05:05.542Z,1002
2023-03-14T01:06:05.524Z,1002
2023-03-14T01:07:05.550Z,1002
2023-03-14T01:08:05.502Z,1002
2023-03-14T01:09:05.545Z,1002
2023-03-14T01:10:05.550Z,1002
2023-03-14T01:11:05.520Z,1002
2023-03-14T01:12:05.513Z,1002
2023-03-14T01:13:05.565Z,1002
2023-03-14T01:14:05.504Z,1002
2023-03-14T01:15:05.558Z,1002
2023-03-14T01:16:05.586Z,1001
2023-03-14T01:17:05.602Z,1002
2023-03-14T01:18:05.661Z,1002
2023-03-14T01:19:05.503Z,1002
2023-03-14T01:20:05.566Z,1002
2023-03-14T01:21:05.531Z,1002
2023-03-14T01:22:05.570Z,1002
2023-03-14T01:23:05.539Z,1002
2023-03-14T01:24:05.573Z,1002
2023-03-14T01:25:05.514Z,1002
2023-03-14T01:26:05.511Z,1002
2023-03-14T01:27:05.570Z,1002
2023-03-14T01:28:05.563Z,1002
2023-03-14T01:29:05.517Z,1002
2023-03-14T01:30:05.541Z,1002
2023-03-14T01:31:05.609Z,1002
2023-03-14T01:32:05.509Z,1002
2023-03-14T01:33:05.576Z,1002
2023-03-14T01:34:05.513Z,1002
2023-03-14T01:35:05.519Z,1002
2023-03-14T01:36:05.670Z,1002
2023-03-14T01:37:05.539Z,1002
2023-03-14T01:38:05.542Z,1002
2023-03-14T01:39:05.576Z,1002
2023-03-14T01:40:05.543Z,1002
2023-03-14T01:41:05.572Z,1002
2023-03-14T01:42:05.541Z,1002
2023-03-14T01:43:05.568Z,1002
2023-03-14T01:44:05.579Z,1002
2023-03-14T01:45:05.583Z,1002
2023-03-14T01:46:05.682Z,1002
2023-03-14T01:47:05.627Z,1002
2023-03-14T01:48:05.569Z,1002
2023-03-14T01:49:05.585Z,1002
2023-03-14T01:50:05.831Z,1002
2023-03-14T01:51:05.585Z,1002
2023-03-14T01:52:05.562Z,1002
2023-03-14T01:53:05.562Z,1002
2023-03-14T01:54:05.577Z,1002
2023-03-14T01:55:05.595Z,1002
2023-03-14T01:56:05.638Z,1002
2023-03-14T01:57:05.601Z,1002
2023-03-14T01:58:05.586Z,1002
2023-03-14T01:59:05.585Z,1002
2023-03-14T02:00:05.564Z,1002
2023-03-14T02:01:05.618Z,1002
2023-03-14T02:02:05.593Z,1002
2023-03-14T02:03:05.634Z,1002
2023-03-14T02:04:05.545Z,1002
2023-03-14T02:05:05.597Z,1001
2023-03-14T02:06:05.638Z,1001
2023-03-14T02:07:05.584Z,1001
2023-03-14T02:08:05.609Z,1001
2023-03-14T02:09:05.611Z,1001
2023-03-14T02:10:05.625Z,1001
2023-03-14T02:11:05.585Z,1001
2023-03-14T02:12:05.594Z,1001
2023-03-14T02:13:05.598Z,1001
2023-03-14T02:14:05.586Z,1001
2023-03-14T02:15:05.581Z,1002
2023-03-14T02:16:05.613Z,1002
2023-03-14T02:17:05.591Z,1002
2023-03-14T02:18:05.579Z,1002
2023-03-14T02:19:05.602Z,1002
2023-03-14T02:20:05.580Z,1002
2023-03-14T02:21:05.603Z,1002
2023-03-14T02:22:05.604Z,1002
2023-03-14T02:23:05.625Z,1001
2023-03-14T02:24:05.585Z,1001
2023-03-14T02:25:05.576Z,1001
2023-03-14T02:26:05.605Z,1001
2023-03-14T02:27:05.665Z,1001
2023-03-14T02:28:05.655Z,1001
2023-03-14T02:29:05.598Z,1001
2023-03-14T02:30:05.617Z,1001
2023-03-14T02:31:05.622Z,1001
2023-03-14T02:32:05.621Z,1001
2023-03-14T02:33:05.608Z,1001
2023-03-14T02:34:05.601Z,1001
2023-03-14T02:35:05.599Z,1001
2023-03-14T02:36:05.682Z,1001
2023-03-14T02:37:05.600Z,1001
2023-03-14T02:38:05.636Z,1001
2023-03-14T02:39:05.606Z,1001
2023-03-14T02:40:05.603Z,1001
2023-03-14T02:41:05.626Z,1001
2023-03-14T02:42:05.663Z,1001
2023-03-14T02:43:05.647Z,1001
2023-03-14T02:44:05.614Z,1001
2023-03-14T02:45:05.610Z,1001
2023-03-14T02:46:05.704Z,1001
2023-03-14T02:47:05.618Z,1001
2023-03-14T02:48:05.666Z,1001
2023-03-14T02:49:05.651Z,1001
2023-03-14T02:50:05.643Z,1001
2023-03-14T02:51:05.638Z,1001
2023-03-14T02:52:05.627Z,1001
2023-03-14T02:53:05.625Z,1001
2023-03-14T02:54:05.667Z,1001
2023-03-14T02:55:05.635Z,1001
2023-03-14T02:56:05.631Z,1001
2023-03-14T02:57:05.639Z,1001
2023-03-14T02:58:05.628Z,1001
2023-03-14T02:59:05.666Z,1001
2023-03-14T03:00:05.628Z,1001
2023-03-14T03:01:05.677Z,1001
2023-03-14T03:02:05.653Z,1001
2023-03-14T03:03:05.774Z,1001
2023-03-14T03:04:05.645Z,1001
2023-03-14T03:05:05.671Z,1001
2023-03-14T03:06:05.630Z,1001
2023-03-14T03:07:05.658Z,1001
2023-03-14T03:08:05.626Z,1001
2023-03-14T03:09:05.656Z,1001
2023-03-14T03:10:05.610Z,1001
2023-03-14T03:11:05.685Z,1001
2023-03-14T03:12:05.667Z,1001
2023-03-14T03:13:05.634Z,1001
2023-03-14T03:14:05.663Z,1001
2023-03-14T03:15:05.669Z,1001
2023-03-14T03:16:05.710Z,1001
2023-03-14T03:17:05.642Z,1001
2023-03-14T03:18:05.656Z,1001
2023-03-14T03:19:05.658Z,1001
2023-03-14T03:20:05.645Z,1001
2023-03-14T03:21:05.659Z,1001
2023-03-14T03:22:05.660Z,1001
2023-03-14T03:23:05.672Z,1001
2023-03-14T03:24:05.651Z,1001
2023-03-14T03:25:05.762Z,1001
2023-03-14T03:26:05.723Z,1001
2023-03-14T03:27:05.727Z,1001
2023-03-14T03:28:05.681Z,1000
2023-03-14T03:29:05.706Z,1000
2023-03-14T03:30:05.731Z,1000
2023-03-14T03:31:05.719Z,1000
2023-03-14T03:32:05.717Z,1000
2023-03-14T03:33:05.731Z,1000
2023-03-14T03:34:05.688Z,1000
2023-03-14T03:35:05.688Z,1000
2023-03-14T03:36:05.701Z,1000
2023-03-14T03:37:05.693Z,1000
2023-03-14T03:38:05.706Z,1000
2023-03-14T03:39:09.411Z,1000
2023-03-14T03:40:08.222Z,1000
2023-03-14T03:41:05.703Z,1000
2023-03-14T03:42:05.701Z,1000
2023-03-14T03:43:05.688Z,1000
2023-03-14T03:44:05.704Z,1000
2023-03-14T03:45:05.721Z,1000
2023-03-14T03:46:05.729Z,1000
2023-03-14T03:47:05.733Z,1000
2023-03-14T03:48:05.734Z,1000
2023-03-14T03:49:05.670Z,1000
2023-03-14T03:50:05.708Z,1000
2023-03-14T03:51:05.723Z,1000
2023-03-14T03:52:05.701Z,1000
2023-03-14T03:53:05.692Z,1000
2023-03-14T03:54:05.742Z,1000
2023-03-14T03:55:05.716Z,1000
2023-03-14T03:56:05.752Z,1000
2023-03-14T03:57:05.722Z,1000
2023-03-14T03:58:05.725Z,1000
2023-03-14T03:59:05.725Z,1000
2023-03-14T04:00:05.758Z,1000
2023-03-14T04:01:05.713Z,1000
2023-03-14T04:02:05.755Z,1000
2023-03-14T04:03:05.709Z,1000
2023-03-14T04:04:05.758Z,1000
2023-03-14T04:05:05.675Z,1000
2023-03-14T04:06:05.818Z,1000
2023-03-14T04:07:05.709Z,1000
2023-03-14T04:08:05.707Z,1001
2023-03-14T04:09:05.708Z,1001
2023-03-14T04:10:05.709Z,1001
2023-03-14T04:11:05.720Z,1001
2023-03-14T04:12:05.733Z,1001
2023-03-14T04:13:05.721Z,1001
2023-03-14T04:14:05.758Z,1001
2023-03-14T04:15:05.739Z,1001
2023-03-14T04:16:05.861Z,1001
2023-03-14T04:17:05.725Z,1001
2023-03-14T04:18:05.678Z,1001
2023-03-14T04:19:05.710Z,1000
2023-03-14T04:20:05.726Z,1000
2023-03-14T04:21:05.713Z,1000
2023-03-14T04:22:05.706Z,1000
2023-03-14T04:23:05.745Z,1000
2023-03-14T04:24:05.744Z,1000
2023-03-14T04:25:06.010Z,1000
2023-03-14T04:26:05.717Z,1000
2023-03-14T04:27:05.734Z,1000
2023-03-14T04:28:05.725Z,1000
2023-03-14T04:29:05.742Z,1000
2023-03-14T04:30:05.744Z,1000
2023-03-14T04:31:05.757Z,1000
2023-03-14T04:32:05.718Z,1000
2023-03-14T04:33:05.684Z,1000
2023-03-14T04:34:05.739Z,1000
2023-03-14T04:35:05.766Z,1000
2023-03-14T04:36:05.805Z,1000
2023-03-14T04:37:05.710Z,1000
2023-03-14T04:38:05.708Z,1000
2023-03-14T04:39:05.691Z,1000
2023-03-14T04:40:05.706Z,1000
2023-03-14T04:41:05.747Z,1000
2023-03-14T04:42:05.748Z,1000
2023-03-14T04:43:05.753Z,1000
2023-03-14T04:44:05.703Z,1000
2023-03-14T04:45:05.738Z,1000
2023-03-14T04:46:05.789Z,1000
2023-03-14T04:47:05.763Z,1000
2023-03-14T04:48:05.750Z,1000
2023-03-14T04:49:05.741Z,1000
2023-03-14T04:50:05.762Z,1000
2023-03-14T04:51:05.756Z,1000
2023-03-14T04:52:05.799Z,999
2023-03-14T04:53:05.766Z,999
2023-03-14T04:54:05.776Z,999
2023-03-14T04:55:05.758Z,999
2023-03-14T04:56:05.776Z,999
2023-03-14T04:57:05.766Z,999
2023-03-14T04:58:05.774Z,1000
2023-03-14T04:59:05.758Z,999
2023-03-14T05:00:05.790Z,999
2023-03-14T05:01:05.780Z,999
2023-03-14T05:02:05.878Z,999
2023-03-14T05:03:05.837Z,999
2023-03-14T05:04:05.768Z,999
2023-03-14T05:05:05.786Z,999
2023-03-14T05:06:05.768Z,999
2023-03-14T05:07:05.823Z,999
2023-03-14T05:08:05.746Z,999
2023-03-14T05:09:05.774Z,999
2023-03-14T05:10:05.786Z,999
2023-03-14T05:11:05.791Z,999
2023-03-14T05:12:05.780Z,999
2023-03-14T05:13:05.781Z,999
2023-03-14T05:14:05.894Z,999
2023-03-14T05:15:05.804Z,999
2023-03-14T05:16:05.885Z,999
2023-03-14T05:17:05.781Z,999
2023-03-14T05:18:05.753Z,999
2023-03-14T05:19:05.796Z,999
2023-03-14T05:20:05.842Z,999
2023-03-14T05:21:05.787Z,999
2023-03-14T05:22:05.797Z,999
2023-03-14T05:23:05.795Z,999
2023-03-14T05:24:05.809Z,999
2023-03-14T05:25:05.802Z,999
2023-03-14T05:26:05.783Z,999
2023-03-14T05:27:05.799Z,999
2023-03-14T05:28:05.804Z,999
2023-03-14T05:29:05.791Z,999
2023-03-14T05:30:05.839Z,999
2023-03-14T05:31:05.858Z,999
2023-03-14T05:32:05.791Z,999
2023-03-14T05:33:05.789Z,999
2023-03-14T05:34:05.778Z,999
2023-03-14T05:35:05.787Z,999
2023-03-14T05:36:05.919Z,999
2023-03-14T05:37:05.792Z,999
2023-03-14T05:38:05.799Z,999
2023-03-14T05:39:05.811Z,999
2023-03-14T05:40:05.794Z,999
2023-03-14T05:41:05.800Z,999
2023-03-14T05:42:05.853Z,999
2023-03-14T05:43:05.838Z,999
2023-03-14T05:44:05.791Z,999
2023-03-14T05:45:05.815Z,999
2023-03-14T05:46:05.845Z,999
2023-03-14T05:47:05.818Z,999
2023-03-14T05:48:05.852Z,999
2023-03-14T05:49:05.802Z,999
2023-03-14T05:50:05.800Z,999
2023-03-14T05:51:05.812Z,999
2023-03-14T05:52:05.817Z,1000
2023-03-14T05:53:05.832Z,1000
2023-03-14T05:54:05.846Z,1000
2023-03-14T05:55:05.796Z,1000
2023-03-14T05:56:05.808Z,1000
2023-03-14T05:57:05.819Z,1000
2023-03-14T05:58:05.858Z,1000
2023-03-14T05:59:05.818Z,1000
2023-03-14T06:00:05.814Z,1000
2023-03-14T06:01:05.833Z,1000
2023-03-14T06:02:05.890Z,1000
2023-03-14T06:03:07.613Z,1000
2023-03-14T06:04:05.882Z,1000
2023-03-14T06:05:05.798Z,1000
2023-03-14T06:06:05.805Z,1000
2023-03-14T06:07:05.795Z,1000
2023-03-14T06:08:05.781Z,1000
2023-03-14T06:09:05.821Z,1000
2023-03-14T06:10:05.786Z,1000
2023-03-14T06:11:05.779Z,1000
2023-03-14T06:12:05.799Z,1000
2023-03-14T06:13:05.857Z,1000
2023-03-14T06:14:05.795Z,1000
2023-03-14T06:15:05.827Z,1000
2023-03-14T06:16:05.826Z,1000
2023-03-14T06:17:05.798Z,1000
2023-03-14T06:18:05.838Z,999
2023-03-14T06:19:05.822Z,999
2023-03-14T06:20:05.833Z,999
2023-03-14T06:21:05.818Z,999
2023-03-14T06:22:05.799Z,999
2023-03-14T06:23:05.813Z,999
2023-03-14T06:24:05.818Z,999
2023-03-14T06:25:05.832Z,999
2023-03-14T06:26:05.807Z,999
2023-03-14T06:27:05.830Z,999
2023-03-14T06:28:05.827Z,999
2023-03-14T06:29:05.825Z,999
2023-03-14T06:30:05.871Z,999
2023-03-14T06:31:05.873Z,999
2023-03-14T06:32:05.810Z,999
2023-03-14T06:33:05.819Z,999
2023-03-14T06:34:05.817Z,999
2023-03-14T06:35:05.838Z,999
2023-03-14T06:36:05.862Z,999
2023-03-14T06:37:05.818Z,999
2023-03-14T06:38:05.849Z,999
2023-03-14T06:39:05.842Z,999
2023-03-14T06:40:05.844Z,999
2023-03-14T06:41:05.856Z,999
2023-03-14T06:42:05.872Z,999
2023-03-14T06:43:05.930Z,999
2023-03-14T06:44:05.822Z,999
2023-03-14T06:45:05.871Z,999
2023-03-14T06:46:05.956Z,999
2023-03-14T06:47:05.848Z,999
2023-03-14T06:48:05.811Z,1000
2023-03-14T06:49:05.853Z,1000
2023-03-14T06:50:05.844Z,1000
2023-03-14T06:51:05.847Z,1000
2023-03-14T06:52:05.846Z,1000
2023-03-14T06:53:05.985Z,1000
2023-03-14T06:54:05.836Z,1000
2023-03-14T06:55:05.866Z,1000
2023-03-14T06:56:05.848Z,1000
2023-03-14T06:57:05.852Z,1000
2023-03-14T06:58:05.898Z,1000
2023-03-14T06:59:05.853Z,1000
2023-03-14T07:00:05.845Z,999
2023-03-14T07:01:05.949Z,999
2023-03-14T07:02:05.864Z,999
2023-03-14T07:03:05.863Z,999
2023-03-14T07:04:05.887Z,999
2023-03-14T07:05:05.862Z,999
2023-03-14T07:06:05.822Z,999
2023-03-14T07:07:05.911Z,999
2023-03-14T07:08:05.856Z,999
2023-03-14T07:09:05.935Z,999
2023-03-14T07:10:05.839Z,999
2023-03-14T07:11:05.869Z,999
2023-03-14T07:12:05.821Z,999
2023-03-14T07:13:05.930Z,999
2023-03-14T07:14:05.844Z,999
2023-03-14T07:15:17.592Z,999
2023-03-14T07:16:05.922Z,999
2023-03-14T07:17:05.863Z,999
2023-03-14T07:18:05.867Z,999
2023-03-14T07:19:05.879Z,999
2023-03-14T07:20:07.446Z,999
2023-03-14T07:21:05.883Z,999
2023-03-14T07:22:05.870Z,999
2023-03-14T07:23:05.869Z,999
2023-03-14T07:24:05.864Z,999
2023-03-14T07:25:05.876Z,999
2023-03-14T07:26:05.905Z,999
2023-03-14T07:27:06.489Z,999
2023-03-14T07:28:06.056Z,999
2023-03-14T07:29:05.884Z,999
2023-03-14T07:30:05.866Z,999
2023-03-14T07:31:05.979Z,999
2023-03-14T07:32:05.894Z,999
2023-03-14T07:33:05.897Z,999
2023-03-14T07:34:05.875Z,999
2023-03-14T07:35:05.885Z,999
2023-03-14T07:36:05.948Z,999
2023-03-14T07:37:05.867Z,999
2023-03-14T07:38:05.890Z,999
2023-03-14T07:39:05.898Z,999
2023-03-14T07:40:05.921Z,999
2023-03-14T07:41:05.869Z,999
2023-03-14T07:42:05.932Z,999
2023-03-14T07:43:05.891Z,999
2023-03-14T07:44:05.881Z,999
2023-03-14T07:45:05.910Z,999
2023-03-14T07:46:05.966Z,999
2023-03-14T07:47:05.896Z,999
2023-03-14T07:48:05.889Z,999
2023-03-14T07:49:05.892Z,999
2023-03-14T07:50:05.938Z,999
2023-03-14T07:51:05.934Z,999
2023-03-14T07:52:05.912Z,999
2023-03-14T07:53:05.928Z,999
2023-03-14T07:54:05.909Z,999
2023-03-14T07:55:05.964Z,999
2023-03-14T07:56:05.907Z,999
2023-03-14T07:57:05.929Z,999
2023-03-14T07:58:05.906Z,999
2023-03-14T07:59:05.903Z,999
2023-03-14T08:00:05.903Z,999
2023-03-14T08:01:05.917Z,999
2023-03-14T08:02:05.900Z,999
2023-03-14T08:03:05.945Z,999
2023-03-14T08:04:05.909Z,999
2023-03-14T08:05:05.899Z,999
2023-03-14T08:06:05.938Z,999
2023-03-14T08:07:05.903Z,999
2023-03-14T08:08:05.901Z,999
2023-03-14T08:09:05.903Z,999
2023-03-14T08:10:05.909Z,999
2023-03-14T08:11:05.911Z,999
2023-03-14T08:12:05.947Z,999
2023-03-14T08:13:05.934Z,999
2023-03-14T08:14:05.906Z,999
2023-03-14T08:15:05.912Z,999
2023-03-14T08:16:06.000Z,999
2023-03-14T08:17:05.943Z,999
2023-03-14T08:18:05.983Z,999
2023-03-14T08:19:05.957Z,999
2023-03-14T08:20:05.926Z,999
2023-03-14T08:21:05.914Z,999
2023-03-14T08:22:05.926Z,999
2023-03-14T08:23:05.926Z,999
2023-03-14T08:24:05.921Z,999
2023-03-14T08:25:06.036Z,999
2023-03-14T08:26:05.935Z,999
2023-03-14T08:27:07.392Z,999
2023-03-14T08:28:05.924Z,999
2023-03-14T08:29:05.929Z,999
2023-03-14T08:30:05.925Z,999
2023-03-14T08:31:06.047Z,999
2023-03-14T08:32:06.116Z,999
2023-03-14T08:33:06.019Z,999
2023-03-14T08:34:05.979Z,999
2023-03-14T08:35:05.944Z,999
2023-03-14T08:36:06.021Z,999
2023-03-14T08:37:10.826Z,999
2023-03-14T08:38:05.976Z,999
2023-03-14T08:39:05.972Z,999
2023-03-14T08:40:05.923Z,999
2023-03-14T08:41:05.919Z,999
2023-03-14T08:42:05.931Z,998
2023-03-14T08:43:05.924Z,998
2023-03-14T08:44:05.952Z,998
2023-03-14T08:45:05.964Z,998
2023-03-14T08:46:05.929Z,998
2023-03-14T08:47:06.071Z,998
2023-03-14T08:48:05.947Z,998
2023-03-14T08:49:05.936Z,998
2023-03-14T08:50:05.918Z,998
2023-03-14T08:51:05.939Z,998
2023-03-14T08:52:05.992Z,998
2023-03-14T08:53:06.117Z,998
2023-03-14T08:54:05.976Z,998
2023-03-14T08:55:05.957Z,998
2023-03-14T08:56:05.962Z,998
2023-03-14T08:57:06.415Z,998
2023-03-14T08:58:05.931Z,998
2023-03-14T08:59:05.996Z,998
2023-03-14T09:00:05.952Z,998
2023-03-14T09:01:05.993Z,998
2023-03-14T09:02:05.923Z,998
2023-03-14T09:03:06.029Z,998
2023-03-14T09:04:06.005Z,998
2023-03-14T09:05:05.971Z,998
2023-03-14T09:06:06.032Z,998
2023-03-14T09:07:05.975Z,998
2023-03-14T09:08:05.961Z,998
2023-03-14T09:09:05.955Z,998
2023-03-14T09:10:06.019Z,998
2023-03-14T09:11:05.968Z,998
2023-03-14T09:12:06.024Z,998
2023-03-14T09:13:05.968Z,998
2023-03-14T09:14:05.964Z,998
2023-03-14T09:15:05.968Z,998
2023-03-14T09:16:06.082Z,998
2023-03-14T09:17:06.011Z,998
2023-03-14T09:18:05.968Z,998
2023-03-14T09:19:05.965Z,998
2023-03-14T09:20:05.974Z,998
2023-03-14T09:21:06.003Z,998
2023-03-14T09:22:05.988Z,998
2023-03-14T09:23:05.983Z,998
2023-03-14T09:24:05.979Z,998
2023-03-14T09:25:05.972Z,998
2023-03-14T09:26:05.993Z,998
2023-03-14T09:27:05.968Z,998
2023-03-14T09:28:05.973Z,998
2023-03-14T09:29:05.973Z,998
2023-03-14T09:30:06.052Z,998
2023-03-14T09:31:05.983Z,998
2023-03-14T09:32:06.056Z,998
2023-03-14T09:33:06.019Z,998
2023-03-14T09:34:05.993Z,998
2023-03-14T09:35:06.019Z,998
2023-03-14T09:36:05.995Z,998
2023-03-14T09:37:06.000Z,998
2023-03-14T09:38:05.983Z,998
2023-03-14T09:39:06.063Z,998
2023-03-14T09:40:07.219Z,998
2023-03-14T09:41:06.035Z,998
2023-03-14T09:42:06.063Z,997
2023-03-14T09:43:06.007Z,997
2023-03-14T09:44:06.013Z,997
2023-03-14T09:45:06.025Z,997
2023-03-14T09:46:06.086Z,997
2023-03-14T09:47:06.090Z,997
2023-03-14T09:48:06.020Z,997
2023-03-14T09:49:06.021Z,997
2023-03-14T09:50:06.059Z,997
2023-03-14T09:51:06.029Z,997
2023-03-14T09:52:06.029Z,997
2023-03-14T09:53:06.060Z,997
2023-03-14T09:54:06.016Z,997
2023-03-14T09:55:06.031Z,997
2023-03-14T09:56:06.010Z,997
2023-03-14T09:57:06.108Z,997
2023-03-14T09:58:06.021Z,997
2023-03-14T09:59:06.009Z,997
2023-03-14T10:00:06.046Z,997
2023-03-14T10:01:06.089Z,997
2023-03-14T10:02:06.021Z,997
2023-03-14T10:03:06.021Z,997
2023-03-14T10:04:06.098Z,997
2023-03-14T10:05:07.166Z,997
2023-03-14T10:06:06.034Z,997
2023-03-14T10:07:06.010Z,997
2023-03-14T10:08:06.013Z,997
2023-03-14T10:09:06.136Z,997
2023-03-14T10:10:06.031Z,997
2023-03-14T10:11:06.043Z,997
2023-03-14T10:12:09.188Z,997
2023-03-14T10:13:06.034Z,997
2023-03-14T10:14:06.094Z,997
2023-03-14T10:15:06.064Z,997
2023-03-14T10:16:06.018Z,997
2023-03-14T10:17:06.127Z,997
2023-03-14T10:18:06.037Z,997
2023-03-14T10:19:06.088Z,997
2023-03-14T10:20:06.042Z,997
2023-03-14T10:21:06.027Z,997
2023-03-14T10:22:06.033Z,997
2023-03-14T10:23:06.023Z,997
2023-03-14T10:24:06.042Z,997
2023-03-14T10:25:06.059Z,997
2023-03-14T10:26:06.050Z,997
2023-03-14T10:27:06.002Z,997
2023-03-14T10:28:06.046Z,997
2023-03-14T10:29:06.028Z,997
2023-03-14T10:30:06.034Z,997
2023-03-14T10:31:06.061Z,997
2023-03-14T10:32:06.043Z,997
2023-03-14T10:33:06.046Z,997
2023-03-14T10:34:06.057Z,997
2023-03-14T10:35:06.003Z,997
2023-03-14T10:36:06.067Z,997
2023-03-14T10:37:06.080Z,997
2023-03-14T10:38:06.018Z,997
2023-03-14T10:39:06.021Z,997
2023-03-14T10:40:06.054Z,997
2023-03-14T10:41:06.007Z,997
2023-03-14T10:42:06.010Z,997
2023-03-14T10:43:06.053Z,997
2023-03-14T10:44:06.048Z,997
2023-03-14T10:45:06.055Z,997
2023-03-14T10:46:06.104Z,997
2023-03-14T10:47:06.067Z,997
2023-03-14T10:48:06.090Z,997
2023-03-14T10:49:06.059Z,997
2023-03-14T10:50:06.052Z,997
2023-03-14T10:51:06.035Z,997
2023-03-14T10:52:06.037Z,997
2023-03-14T10:53:06.043Z,997
2023-03-14T10:54:06.111Z,997
2023-03-14T10:55:06.058Z,997
2023-03-14T10:56:06.047Z,997
2023-03-14T10:57:06.069Z,997
2023-03-14T10:58:06.055Z,997
2023-03-14T10:59:06.055Z,997
2023-03-14T11:00:06.061Z,996
2023-03-14T11:01:06.068Z,996
2023-03-14T11:02:06.079Z,996
2023-03-14T11:03:06.069Z,996
2023-03-14T11:04:06.065Z,996
2023-03-14T11:05:06.185Z,996
2023-03-14T11:06:06.063Z,996
2023-03-14T11:07:06.110Z,996
2023-03-14T11:08:07.650Z,996
2023-03-14T11:09:06.077Z,996
2023-03-14T11:10:06.066Z,996
2023-03-14T11:11:06.087Z,996
2023-03-14T11:12:06.075Z,996
2023-03-14T11:13:06.076Z,996
2023-03-14T11:14:06.059Z,996
2023-03-14T11:15:06.068Z,996
2023-03-14T11:16:06.235Z,996
2023-03-14T11:17:06.070Z,996
2023-03-14T11:18:06.068Z,996
2023-03-14T11:19:06.058Z,996
2023-03-14T11:20:06.062Z,996
2023-03-14T11:21:06.079Z,996
2023-03-14T11:22:06.117Z,996
2023-03-14T11:23:06.083Z,996
2023-03-14T11:24:06.072Z,996
2023-03-14T11:25:06.071Z,996
2023-03-14T11:26:06.085Z,996
2023-03-14T11:27:06.110Z,996
2023-03-14T11:28:06.129Z,996
2023-03-14T11:29:06.088Z,996
2023-03-14T11:30:06.095Z,996
2023-03-14T11:31:06.108Z,996
2023-03-14T11:32:06.626Z,996
2023-03-14T11:33:06.576Z,996
2023-03-14T11:34:06.430Z,996
2023-03-14T11:35:06.429Z,996
2023-03-14T11:36:06.618Z,996
2023-03-14T11:37:06.097Z,996
2023-03-14T11:38:06.093Z,996
2023-03-14T11:39:06.082Z,996
2023-03-14T11:40:06.099Z,996
2023-03-14T11:41:06.096Z,996
2023-03-14T11:42:06.223Z,996
2023-03-14T11:43:06.266Z,995
2023-03-14T11:44:06.100Z,995
2023-03-14T11:45:06.093Z,995
2023-03-14T11:46:06.124Z,995
2023-03-14T11:47:06.101Z,995
2023-03-14T11:48:06.148Z,995
2023-03-14T11:49:06.100Z,995
2023-03-14T11:50:06.098Z,995
2023-03-14T11:51:06.101Z,995
2023-03-14T11:52:06.109Z,995
2023-03-14T11:53:06.103Z,995
2023-03-14T11:54:06.151Z,995
2023-03-14T11:55:06.101Z,995
2023-03-14T11:56:06.359Z,995
2023-03-14T11:57:06.143Z,995
2023-03-14T11:58:06.087Z,995
2023-03-14T11:59:06.079Z,995
2023-03-14T12:00:06.119Z,995
2023-03-14T12:01:06.119Z,995
2023-03-14T12:02:06.618Z,995
2023-03-14T12:03:06.195Z,995
2023-03-14T12:04:06.138Z,995
2023-03-14T12:05:06.330Z,995
2023-03-14T12:06:06.123Z,995
2023-03-14T12:07:06.085Z,995
2023-03-14T12:08:06.112Z,995
2023-03-14T12:09:06.115Z,995
2023-03-14T12:10:06.119Z,995
2023-03-14T12:11:06.122Z,995
2023-03-14T12:12:06.088Z,995
2023-03-14T12:13:06.105Z,995
2023-03-14T12:14:06.122Z,995
2023-03-14T12:15:06.110Z,995
2023-03-14T12:16:06.199Z,995
2023-03-14T12:17:06.202Z,995
2023-03-14T12:18:06.090Z,995
2023-03-14T12:19:06.114Z,995
2023-03-14T12:20:06.133Z,996
2023-03-14T12:21:06.134Z,995
2023-03-14T12:22:06.090Z,995
2023-03-14T12:23:06.121Z,995
2023-03-14T12:24:06.090Z,995
2023-03-14T12:25:06.087Z,995
2023-03-14T12:26:06.103Z,995
2023-03-14T12:27:06.138Z,995
2023-03-14T12:28:06.154Z,995
2023-03-14T12:29:06.125Z,995
2023-03-14T12:30:06.133Z,995
2023-03-14T12:31:06.084Z,995
2023-03-14T12:32:06.123Z,995
2023-03-14T12:33:06.124Z,995
2023-03-14T12:34:06.120Z,995
2023-03-14T12:35:06.133Z,995
2023-03-14T12:36:06.142Z,995
2023-03-14T12:37:06.099Z,995
2023-03-14T12:38:06.132Z,995
2023-03-14T12:39:06.086Z,994
2023-03-14T12:40:07.111Z,994
2023-03-14T12:41:06.120Z,994
2023-03-14T12:42:06.145Z,994
2023-03-14T12:43:06.116Z,994
2023-03-14T12:44:06.132Z,994
2023-03-14T12:45:06.119Z,994
2023-03-14T12:46:06.315Z,994
2023-03-14T12:47:06.143Z,994
2023-03-14T12:48:06.121Z,994
2023-03-14T12:49:06.131Z,994
2023-03-14T12:50:06.167Z,994
2023-03-14T12:51:06.148Z,994
2023-03-14T12:52:06.156Z,994
2023-03-14T12:53:06.182Z,994
2023-03-14T12:54:06.193Z,994
2023-03-14T12:55:06.202Z,994
2023-03-14T12:56:06.116Z,994
2023-03-14T12:57:06.190Z,994
2023-03-14T12:58:06.186Z,994
2023-03-14T12:59:06.117Z,994
2023-03-14T13:00:06.167Z,994
2023-03-14T13:01:06.233Z,994
2023-03-14T13:02:06.167Z,994
2023-03-14T13:03:06.205Z,994
2023-03-14T13:04:06.231Z,994
2023-03-14T13:05:06.192Z,994
2023-03-14T13:06:06.131Z,994
2023-03-14T13:07:06.145Z,994
2023-03-14T13:08:06.165Z,994
2023-03-14T13:09:06.193Z,994
2023-03-14T13:10:06.160Z,994
2023-03-14T13:11:06.128Z,994
2023-03-14T13:12:06.149Z,994
2023-03-14T13:13:06.136Z,995
2023-03-14T13:14:06.151Z,995
2023-03-14T13:15:06.168Z,995
2023-03-14T13:16:06.143Z,995
2023-03-14T13:17:25.172Z,995
2023-03-14T13:18:06.201Z,995
2023-03-14T13:19:06.186Z,995
2023-03-14T13:20:06.166Z,995
2023-03-14T13:21:06.168Z,995
2023-03-14T13:22:06.166Z,995
2023-03-14T13:23:06.172Z,995
2023-03-14T13:24:06.159Z,995
2023-03-14T13:25:06.431Z,995
2023-03-14T13:26:06.217Z,995
2023-03-14T13:27:06.147Z,995
2023-03-14T13:28:06.173Z,995
2023-03-14T13:29:06.204Z,994
2023-03-14T13:30:06.168Z,994
2023-03-14T13:31:06.320Z,994
2023-03-14T13:32:06.201Z,994
2023-03-14T13:33:06.206Z,994
2023-03-14T13:34:06.250Z,994